Details From CYFB - Iqaluit
To CYZG - Salluit
Flight Number -
Tags decoded
Created
Modified
Stats Distance 216 nm / 400 km
Max Altitude 0 ft / 0 m
Waypoints 2
Social Downloads 2
Likes 0
Share VATSIM

Download

Looking for another format? Having issues loading an existing format? Contact us
Advertisement - Login to hide

Notes

Requested: CYFB CYZG

Route

CYFB CYZG

ID Type Via Altitude Latitude Longitude Leg Dist Tot Dist Heading (true) Name
O CYFB APT - 0 ft / 0 m 63.75657˚ -68.55606˚ - 0 nm - Iqaluit
O CYZG APT - 0 ft / 0 m 62.17918˚ -75.66731˚ 215 nm 215 nm 247° / 241° Salluit

Altitude Profile

Advertisement - Login to hide

Weather


0- 5 10 15 20 25 30 35+ Temperature / ° C

Clouds and Precipitation
Forecast for 2018-05-21 18:00 UTC. Updated 2 hours ago

Ground ~20,000 ft ~40,000 ft Winds

CYFB

Details ICAO CYFB (YFB)
Name Iqaluit
Region Canada
Timezone America/Iqaluit (UTC-4.0)
Stats Elevation 110 ft / 34 m (AMSL)
Location 63.756565° -68.556058°
Runways 1
Magnetic Variation 27.375° W

METAR

CYFB 211700Z 33010KT 30SM FEW020 BKN042 M02/M07 A2978 RMK SC1SC6 -SN INTMT SLP091

Decode

TAF

TAF CYFB 211138Z 2112/2212 VRB03KT P6SM BKN030 TEMPO 2112/2212 SCT030 BECMG 2115/2117 33010KT RMK NXT FCST BY 211800Z

Decode

Departure Runways

ID Width Length Bearing (true) Bearing (mag) Surface Threshold Offset Overrun Length
17 200 ft / 61 m 8,605 ft / 2,623 m 135.58° 162.96° Asphalt 0 ft / 0 m 210 ft / 64 m
35 200 ft / 61 m 8,605 ft / 2,623 m 315.62° 343.00° Asphalt 0 ft / 0 m 243 ft / 74 m

CYZG

Details ICAO CYZG (YZG)
Name Salluit
Region Canada
Timezone America/Montreal (UTC-4.0)
Stats Elevation 705 ft / 215 m (AMSL)
Location 62.179178° -75.667313°
Runways 1
Magnetic Variation 22.824° W

METAR

CYZG 211700Z 26007KT 1 1/2SM -SN OVC011 M05/M07 A2980 RMK ST8 SLP114

Decode

TAF

TAF AMD CYZG 211549Z 2115/2121 32010KT 3/4SM -SN OVC008 TEMPO 2115/2119 P6SM -SN BKN015 OVC050 FM211900 36010KT P6SM -SN SCT015 OVC050 TEMPO 2119/2121 BKN015 OVC050 RMK NXT FCST WILL BE ISSUED AT 221345Z

Decode

Destination Runways

ID Width Length Bearing (true) Bearing (mag) Surface Threshold Offset Overrun Length
1 115 ft / 35 m 3,939 ft / 1,201 m 187.01° 209.83° Gravel 0 ft / 0 m 0 ft / 0 m
19 115 ft / 35 m 3,939 ft / 1,201 m 7.01° 29.83° Gravel 0 ft / 0 m 0 ft / 0 m

Popular Alternatives